Time;durP1;ratioP1;P1;durP2;ratioP2;P2;SDS_P1;SDS_P2;PMS_P1;PMS_P2;Temp;Humidity;BMP_temperature;BMP_pressure;BME280_temperature;BME280_humidity;BME280_pressure;Samples;Min_cycle;Max_cycle;Signal;HPM_P1;HPM_P2
2021/03/13 00:01:18;;;;;;;3.38;1.25;;;32.90;90.00;;;;;;5072101;28;20817;-84
2021/03/13 00:03:46;;;;;;;1.80;1.48;;;32.90;91.10;;;;;;5072739;28;20366;-85
2021/03/13 00:06:13;;;;;;;1.75;1.40;;;33.50;91.10;;;;;;5072183;28;20875;-84
2021/03/13 00:08:40;;;;;;;1.50;1.20;;;33.70;89.20;;;;;;5070845;28;20374;-85
2021/03/13 00:11:08;;;;;;;2.15;1.27;;;33.80;89.90;;;;;;5073172;28;20385;-84
2021/03/13 00:13:36;;;;;;;1.92;1.35;;;33.20;88.10;;;;;;5073490;28;20382;-84
2021/03/13 00:16:07;;;;;;;2.40;1.08;;;33.50;89.40;;;;;;5073867;28;20370;-84
2021/03/13 00:18:35;;;;;;;1.10;1.00;;;33.60;87.80;;;;;;5071933;28;20417;-84
2021/03/13 00:21:02;;;;;;;2.33;1.42;;;33.60;87.10;;;;;;5070798;28;20401;-83
2021/03/13 00:23:29;;;;;;;2.33;1.20;;;33.40;89.00;;;;;;5062601;28;20501;-84
2021/03/13 00:25:56;;;;;;;1.02;1.02;;;32.90;87.20;;;;;;5071524;28;20374;-84
2021/03/13 00:28:24;;;;;;;2.07;1.03;;;32.80;87.70;;;;;;5069061;28;20386;-83
2021/03/13 00:30:51;;;;;;;2.20;0.90;;;32.20;88.20;;;;;;5086702;28;20388;-84
2021/03/13 00:33:35;;;;;;;2.17;1.00;;;32.20;90.20;;;;;;5073630;28;20742;-84
2021/03/13 00:36:02;;;;;;;1.77;0.98;;;32.80;92.00;;;;;;5067142;28;20497;-85
2021/03/13 00:38:29;;;;;;;2.00;1.33;;;33.00;87.00;;;;;;5073523;28;20394;-83
2021/03/13 00:40:56;;;;;;;2.33;1.02;;;33.20;90.40;;;;;;5074764;28;20395;-84
2021/03/13 00:43:23;;;;;;;3.30;1.10;;;33.40;88.90;;;;;;5091261;28;20449;-84
2021/03/13 00:45:50;;;;;;;0.90;0.90;;;33.50;85.80;;;;;;5091394;28;20457;-85
2021/03/13 00:48:18;;;;;;;0.98;0.93;;;33.40;83.20;;;;;;5075810;28;20425;-84
2021/03/13 00:50:46;;;;;;;1.20;1.10;;;33.40;85.30;;;;;;5073945;28;20476;-84
2021/03/13 00:53:14;;;;;;;3.05;1.00;;;33.70;83.90;;;;;;5080315;28;20389;-85
2021/03/13 00:55:42;;;;;;;2.83;1.05;;;33.60;84.70;;;;;;5085239;28;20445;-85
2021/03/13 00:58:09;;;;;;;1.92;0.90;;;33.40;82.70;;;;;;5076548;28;20402;-84
2021/03/13 01:00:36;;;;;;;2.65;0.95;;;33.30;85.40;;;;;;5071617;28;20844;-83
2021/03/13 01:03:06;;;;;;;1.52;0.80;;;33.40;86.70;;;;;;5081535;28;20391;-83
2021/03/13 01:05:34;;;;;;;1.70;1.00;;;33.40;82.50;;;;;;5077295;28;20908;-84
2021/03/13 01:08:01;;;;;;;2.75;1.20;;;32.80;84.80;;;;;;5070376;28;20374;-84
2021/03/13 01:10:33;;;;;;;2.38;0.90;;;32.90;87.90;;;;;;5055972;28;20384;-84
2021/03/13 01:13:01;;;;;;;0.95;0.82;;;32.70;87.20;;;;;;5075032;28;20906;-85
2021/03/13 01:15:28;;;;;;;1.10;0.90;;;32.80;86.60;;;;;;5082288;28;20494;-85
2021/03/13 01:17:55;;;;;;;2.00;0.93;;;32.50;88.10;;;;;;5073832;28;20400;-83
2021/03/13 01:20:24;;;;;;;3.70;1.00;;;31.70;90.10;;;;;;5090510;28;20449;-84
2021/03/13 01:22:52;;;;;;;2.20;0.77;;;31.20;90.80;;;;;;5071692;28;20860;-86
2021/03/13 01:25:19;;;;;;;1.00;0.80;;;30.80;93.00;;;;;;5084114;28;20404;-85
2021/03/13 01:27:47;;;;;;;1.10;0.70;;;30.60;92.00;;;;;;5079263;28;20389;-85
2021/03/13 01:30:21;;;;;;;1.60;0.80;;;30.50;94.10;;;;;;5071420;28;20396;-85
2021/03/13 01:32:51;;;;;;;1.27;0.73;;;30.50;94.30;;;;;;5085999;28;20755;-85
2021/03/13 01:35:19;;;;;;;1.40;0.80;;;30.50;92.70;;;;;;5086149;28;20439;-85
2021/03/13 01:37:46;;;;;;;1.20;0.70;;;30.50;91.50;;;;;;5086378;28;20755;-87
2021/03/13 01:40:15;;;;;;;0.75;0.70;;;30.60;92.50;;;;;;5086138;28;20400;-85
2021/03/13 01:42:44;;;;;;;2.53;0.73;;;30.60;92.10;;;;;;5085801;28;20383;-83
2021/03/13 01:45:13;;;;;;;0.67;0.60;;;30.50;92.80;;;;;;5078691;28;20476;-85
2021/03/13 01:47:42;;;;;;;3.28;0.90;;;30.40;92.10;;;;;;5074609;28;20793;-84
2021/03/13 01:50:11;;;;;;;0.80;0.80;;;30.10;91.90;;;;;;5084121;28;20400;-85
2021/03/13 01:52:38;;;;;;;1.75;0.90;;;30.00;92.50;;;;;;5081103;28;20384;-85
2021/03/13 01:55:10;;;;;;;1.27;0.90;;;29.90;93.30;;;;;;5070982;28;20392;-84
2021/03/13 01:57:38;;;;;;;2.55;0.70;;;29.90;93.30;;;;;;5059717;28;20734;-84
2021/03/13 02:00:08;;;;;;;1.03;0.70;;;29.70;92.90;;;;;;5067460;28;20763;-84
2021/03/13 02:02:35;;;;;;;3.60;0.90;;;29.60;93.80;;;;;;5068892;28;20758;-84
2021/03/13 02:05:08;;;;;;;2.88;0.80;;;29.30;94.00;;;;;;5079325;28;20392;-84
2021/03/13 02:07:46;;;;;;;3.78;0.85;;;29.30;94.10;;;;;;5088456;28;20773;-81
2021/03/13 02:10:20;;;;;;;3.00;0.93;;;29.30;94.90;;;;;;5054440;28;20392;-83
2021/03/13 02:13:15;;;;;;;1.30;0.80;;;29.40;94.60;;;;;;5068536;28;20405;-83
2021/03/13 02:16:14;;;;;;;1.33;0.70;;;29.50;94.40;;;;;;5069502;28;20386;-85
2021/03/13 02:19:13;;;;;;;1.10;0.77;;;29.50;94.10;;;;;;5069025;28;20410;-84
2021/03/13 02:21:47;;;;;;;1.90;0.75;;;29.50;94.80;;;;;;5050265;28;20752;-85
2021/03/13 02:24:28;;;;;;;2.45;0.88;;;29.60;94.80;;;;;;5061999;28;20362;-87
2021/03/13 02:27:04;;;;;;;1.30;0.60;;;29.70;94.10;;;;;;5068983;28;20504;-86
2021/03/13 02:29:45;;;;;;;2.40;0.70;;;29.80;94.20;;;;;;5067084;28;20849;-88
2021/03/13 02:32:37;;;;;;;1.63;0.77;;;29.90;93.60;;;;;;5069192;28;20387;-86
2021/03/13 02:35:10;;;;;;;3.05;0.70;;;30.00;93.80;;;;;;5065828;28;20898;-87
2021/03/13 02:37:42;;;;;;;4.10;0.75;;;30.00;93.80;;;;;;5074183;28;20394;-88
2021/03/13 02:40:11;;;;;;;1.67;0.80;;;30.30;94.20;;;;;;5070673;28;21513;-84
2021/03/13 02:42:53;;;;;;;1.30;0.90;;;30.40;93.10;;;;;;5067398;28;20410;-84
2021/03/13 02:45:27;;;;;;;1.50;0.80;;;30.40;92.70;;;;;;5069208;28;20394;-86
2021/03/13 02:47:55;;;;;;;1.13;0.70;;;30.40;94.10;;;;;;5069021;28;20670;-83
2021/03/13 02:50:23;;;;;;;3.57;0.87;;;30.40;94.90;;;;;;5067541;28;20394;-83
2021/03/13 02:52:52;;;;;;;1.63;0.80;;;30.30;92.20;;;;;;5068829;28;20385;-84
2021/03/13 02:55:22;;;;;;;2.20;0.60;;;30.50;93.50;;;;;;5068787;28;20386;-84
2021/03/13 02:57:52;;;;;;;2.40;0.60;;;30.60;92.60;;;;;;5069020;28;20390;-85
2021/03/13 03:00:21;;;;;;;1.17;0.73;;;30.80;92.30;;;;;;5068993;28;20385;-84
2021/03/13 03:02:55;;;;;;;2.53;0.80;;;30.60;91.70;;;;;;5068536;28;20923;-85
2021/03/13 03:05:27;;;;;;;2.05;0.70;;;30.60;91.20;;;;;;5068543;28;20397;-85
2021/03/13 03:07:56;;;;;;;2.60;0.80;;;30.60;92.20;;;;;;5068873;28;20374;-84
2021/03/13 03:10:27;;;;;;;0.75;0.57;;;30.50;92.90;;;;;;5068726;28;20789;-84
2021/03/13 03:12:56;;;;;;;0.87;0.70;;;30.50;92.40;;;;;;5069029;28;20429;-83
2021/03/13 03:15:26;;;;;;;1.65;0.70;;;30.60;92.30;;;;;;5069493;28;20397;-85
2021/03/13 03:17:56;;;;;;;1.10;0.80;;;30.50;91.70;;;;;;5069364;28;20413;-85
2021/03/13 03:20:23;;;;;;;1.05;0.55;;;30.50;91.20;;;;;;5073426;28;20823;-83
2021/03/13 03:22:50;;;;;;;1.60;0.60;;;30.70;92.70;;;;;;5068826;28;20456;-85
2021/03/13 03:25:18;;;;;;;0.80;0.50;;;30.70;90.20;;;;;;5076548;28;20472;-84
2021/03/13 03:27:50;;;;;;;1.20;0.73;;;30.80;90.10;;;;;;5073400;28;20779;-86
2021/03/13 03:30:30;;;;;;;1.50;0.60;;;30.70;89.10;;;;;;5081082;28;20961;-83
2021/03/13 03:32:58;;;;;;;4.35;0.70;;;30.60;88.40;;;;;;5087823;28;20388;-84
2021/03/13 03:35:26;;;;;;;1.17;0.60;;;30.30;90.70;;;;;;5083977;28;20452;-82
2021/03/13 03:37:57;;;;;;;2.40;0.65;;;30.10;91.80;;;;;;5089301;28;20924;-84
2021/03/13 03:40:28;;;;;;;1.30;0.70;;;30.00;91.10;;;;;;5070773;28;20489;-83
2021/03/13 03:43:10;;;;;;;0.75;0.40;;;29.90;90.80;;;;;;5092723;28;20736;-83
2021/03/13 03:45:38;;;;;;;0.85;0.52;;;29.90;91.20;;;;;;5069426;28;20410;-82
2021/03/13 03:48:13;;;;;;;2.10;0.80;;;29.80;90.60;;;;;;5072393;28;20792;-84
2021/03/13 03:50:43;;;;;;;3.03;0.70;;;29.70;89.30;;;;;;5071134;28;20374;-83
2021/03/13 03:53:22;;;;;;;2.70;0.70;;;29.70;89.80;;;;;;5072124;28;20394;-83
2021/03/13 03:55:53;;;;;;;1.55;0.63;;;29.60;89.70;;;;;;5071961;28;20745;-84
2021/03/13 03:58:25;;;;;;;1.15;0.70;;;29.50;90.30;;;;;;5072141;28;20386;-83
2021/03/13 04:00:53;;;;;;;0.95;0.70;;;29.50;91.30;;;;;;5071688;28;20398;-83
2021/03/13 04:03:22;;;;;;;1.50;0.55;;;29.50;91.10;;;;;;5071938;28;20845;-83
2021/03/13 04:05:50;;;;;;;1.40;0.60;;;29.60;90.90;;;;;;5071951;28;20734;-83
2021/03/13 04:08:18;;;;;;;1.00;0.60;;;29.60;92.20;;;;;;5071858;28;20401;-83
2021/03/13 04:10:50;;;;;;;1.67;0.77;;;29.60;91.90;;;;;;5071588;28;20877;-83
2021/03/13 04:13:20;;;;;;;2.00;0.68;;;29.70;92.50;;;;;;5071586;28;20395;-83
2021/03/13 04:15:49;;;;;;;1.70;0.70;;;29.60;92.00;;;;;;5071251;28;20778;-83
2021/03/13 04:18:20;;;;;;;1.88;0.60;;;29.60;91.80;;;;;;5071956;28;20401;-82
2021/03/13 04:20:49;;;;;;;3.55;1.10;;;29.60;93.20;;;;;;5071721;28;20428;-82
2021/03/13 04:23:18;;;;;;;1.85;1.10;;;29.40;94.40;;;;;;5071316;28;20401;-82
2021/03/13 04:25:47;;;;;;;2.70;1.30;;;29.40;95.70;;;;;;5071355;28;20366;-82
2021/03/13 04:28:15;;;;;;;4.22;1.50;;;29.30;96.30;;;;;;5060133;28;20846;-83
2021/03/13 04:30:42;;;;;;;4.33;1.23;;;29.10;97.30;;;;;;5071187;28;20492;-82
2021/03/13 04:33:10;;;;;;;3.45;1.45;;;28.90;97.70;;;;;;5071086;28;20374;-82
2021/03/13 04:35:37;;;;;;;2.55;1.45;;;28.60;99.00;;;;;;5070996;28;20451;-82
2021/03/13 04:38:08;;;;;;;3.05;1.63;;;28.60;99.60;;;;;;5071096;28;20425;-81
2021/03/13 04:40:35;;;;;;;5.57;1.52;;;28.60;99.50;;;;;;5070974;28;20538;-83
2021/03/13 04:43:03;;;;;;;5.38;1.60;;;28.80;99.70;;;;;;5070655;28;20382;-82
2021/03/13 04:45:31;;;;;;;3.30;1.60;;;28.90;99.90;;;;;;5071112;28;20394;-82
2021/03/13 04:47:58;;;;;;;3.58;1.52;;;28.80;99.90;;;;;;5071163;28;20861;-83
2021/03/13 04:50:25;;;;;;;3.35;1.60;;;28.70;99.90;;;;;;5070868;28;20440;-83
2021/03/13 04:52:52;;;;;;;5.55;1.80;;;28.50;99.90;;;;;;5070846;28;20381;-82
2021/03/13 04:55:19;;;;;;;3.85;1.67;;;28.20;99.90;;;;;;5070706;28;20402;-82
2021/03/13 04:57:46;;;;;;;4.78;1.80;;;28.10;99.90;;;;;;5070908;28;20809;-82
2021/03/13 05:00:16;;;;;;;3.85;1.50;;;28.00;99.90;;;;;;5070412;28;20433;-82
2021/03/13 05:02:44;;;;;;;3.42;1.75;;;27.90;99.90;;;;;;5070703;28;20481;-82
2021/03/13 05:05:11;;;;;;;4.88;2.13;;;27.90;99.90;;;;;;5070727;28;20382;-83
2021/03/13 05:07:38;;;;;;;4.45;1.90;;;27.90;99.90;;;;;;5070923;28;20366;-81
2021/03/13 05:10:07;;;;;;;6.60;2.23;;;27.90;99.90;;;;;;5070726;28;20919;-82
2021/03/13 05:12:35;;;;;;;5.53;1.95;;;27.90;99.90;;;;;;5071080;28;20381;-83
2021/03/13 05:15:03;;;;;;;6.13;2.25;;;27.90;99.90;;;;;;5089388;28;20380;-82
2021/03/13 05:17:30;;;;;;;2.95;1.85;;;27.90;99.90;;;;;;5084391;28;20469;-82
2021/03/13 05:19:57;;;;;;;2.83;1.63;;;28.00;99.90;;;;;;5070253;28;20896;-82
2021/03/13 05:22:24;;;;;;;3.40;1.50;;;28.30;99.90;;;;;;5070438;28;20366;-82
2021/03/13 05:24:52;;;;;;;3.50;1.50;;;28.50;99.90;;;;;;5070562;28;20744;-82
2021/03/13 05:27:19;;;;;;;4.63;1.90;;;28.50;99.90;;;;;;5070313;28;20420;-83
2021/03/13 05:29:46;;;;;;;3.15;1.70;;;28.40;99.90;;;;;;5070400;28;20402;-82
2021/03/13 05:32:13;;;;;;;3.85;1.63;;;28.20;99.90;;;;;;5070215;28;20435;-82
2021/03/13 05:34:40;;;;;;;4.50;1.88;;;28.10;99.90;;;;;;5069581;28;20386;-82
2021/03/13 05:37:07;;;;;;;2.33;1.50;;;28.10;99.90;;;;;;5070336;28;20401;-83
2021/03/13 05:39:34;;;;;;;3.60;1.55;;;28.30;99.90;;;;;;5070295;28;20405;-82
2021/03/13 05:42:03;;;;;;;5.95;1.98;;;28.50;99.90;;;;;;5069484;28;20371;-82
2021/03/13 05:44:30;;;;;;;3.33;1.50;;;28.60;99.90;;;;;;5069564;28;20417;-82
2021/03/13 05:46:58;;;;;;;2.85;1.60;;;28.50;99.90;;;;;;5070200;28;20378;-82
2021/03/13 05:49:26;;;;;;;5.57;1.60;;;28.40;99.90;;;;;;5069746;28;20749;-83
2021/03/13 05:51:55;;;;;;;5.63;1.48;;;28.30;99.90;;;;;;5069769;28;20385;-82
2021/03/13 05:54:22;;;;;;;4.17;1.50;;;28.40;99.90;;;;;;5069692;28;20374;-82
2021/03/13 05:56:49;;;;;;;3.47;1.60;;;28.40;99.90;;;;;;5069625;28;20370;-82
2021/03/13 05:59:16;;;;;;;3.53;1.50;;;28.40;99.90;;;;;;5069410;28;20402;-82
2021/03/13 06:01:44;;;;;;;2.00;1.33;;;28.40;99.90;;;;;;5069432;28;20967;-82
2021/03/13 06:04:11;;;;;;;4.32;1.40;;;28.30;99.90;;;;;;5069323;28;20382;-82
2021/03/13 06:06:39;;;;;;;4.47;1.50;;;28.20;99.90;;;;;;5069508;28;20378;-82
2021/03/13 06:09:09;;;;;;;4.35;1.48;;;28.10;99.90;;;;;;5083428;28;20384;-82
2021/03/13 06:11:36;;;;;;;4.45;1.60;;;28.10;99.90;;;;;;5078107;28;20461;-83
2021/03/13 06:14:03;;;;;;;2.97;1.20;;;28.10;99.90;;;;;;5069086;28;20382;-80
2021/03/13 06:16:33;;;;;;;3.17;1.33;;;28.10;99.90;;;;;;5069729;28;20402;-82
2021/03/13 06:19:00;;;;;;;3.15;1.38;;;28.10;99.90;;;;;;5067671;28;20807;-82
2021/03/13 06:21:31;;;;;;;4.22;1.50;;;28.00;99.90;;;;;;5069218;28;20714;-82
2021/03/13 06:24:12;;;;;;;5.30;1.70;;;28.00;99.90;;;;;;5068871;28;20374;-81
2021/03/13 06:27:01;;;;;;;3.45;1.48;;;28.00;99.90;;;;;;5069215;28;21061;-82
2021/03/13 06:29:31;;;;;;;5.28;1.77;;;27.90;99.90;;;;;;5069044;28;20732;-82
2021/03/13 06:32:13;;;;;;;2.17;1.42;;;28.00;99.90;;;;;;5068863;28;20370;-82
2021/03/13 06:34:41;;;;;;;3.70;1.50;;;27.90;99.90;;;;;;5069275;28;20432;-81
2021/03/13 06:37:26;;;;;;;3.35;1.40;;;27.80;99.90;;;;;;5069183;28;20747;-81
2021/03/13 06:39:54;;;;;;;1.83;1.42;;;27.70;99.90;;;;;;5069437;28;20402;-81
2021/03/13 06:42:28;;;;;;;3.75;1.65;;;27.60;99.90;;;;;;5070125;28;20845;-82
2021/03/13 06:44:57;;;;;;;2.33;1.40;;;27.60;99.90;;;;;;5071195;28;20382;-82
2021/03/13 06:47:36;;;;;;;3.95;1.65;;;27.60;99.90;;;;;;5070245;28;20432;-81
2021/03/13 06:50:26;;;;;;;6.10;1.60;;;27.50;99.90;;;;;;5069022;28;20412;-82
2021/03/13 06:53:10;;;;;;;5.07;1.30;;;27.40;99.90;;;;;;5068080;28;20832;-82
2021/03/13 06:55:37;;;;;;;5.93;1.40;;;27.20;99.90;;;;;;5068667;28;20378;-82
2021/03/13 06:58:12;;;;;;;3.42;1.40;;;27.10;99.90;;;;;;5068482;28;20453;-83
2021/03/13 07:00:41;;;;;;;2.90;1.53;;;27.00;99.90;;;;;;5068564;28;20401;-81
2021/03/13 07:03:13;;;;;;;9.40;1.60;;;26.90;99.90;;;;;;5068335;28;20382;-81
2021/03/13 07:05:42;;;;;;;3.40;1.40;;;26.80;99.90;;;;;;5068392;28;20502;-81
2021/03/13 07:08:30;;;;;;;4.03;1.50;;;26.70;99.90;;;;;;5068754;28;20390;-82
2021/03/13 07:11:09;;;;;;;2.37;1.23;;;26.60;99.90;;;;;;5068499;28;20814;-81
2021/03/13 07:13:56;;;;;;;3.75;1.40;;;26.60;99.90;;;;;;5068750;28;20856;-84
2021/03/13 07:16:24;;;;;;;6.28;1.60;;;26.60;99.90;;;;;;5068571;28;20806;-81
2021/03/13 07:19:12;;;;;;;2.55;1.55;;;26.60;99.90;;;;;;5068637;28;20506;-81
2021/03/13 07:21:41;;;;;;;5.63;1.60;;;26.60;99.90;;;;;;5050299;28;20393;-82
2021/03/13 07:24:11;;;;;;;3.03;1.38;;;26.60;99.90;;;;;;5068285;28;20390;-80
2021/03/13 07:26:46;;;;;;;4.80;1.55;;;26.50;99.90;;;;;;5068360;28;20841;-81
2021/03/13 07:29:15;;;;;;;11.18;1.90;;;26.40;99.90;;;;;;5057646;28;20479;-80
2021/03/13 07:31:51;;;;;;;6.07;2.00;;;26.30;99.90;;;;;;5064807;28;20557;-84
2021/03/13 07:34:21;;;;;;;7.40;1.75;;;26.30;99.90;;;;;;5060059;28;20394;-85
2021/03/13 07:36:53;;;;;;;6.20;1.90;;;26.20;99.90;;;;;;5068039;28;20480;-84
2021/03/13 07:39:23;;;;;;;5.72;1.92;;;26.10;99.90;;;;;;5068101;28;20931;-84
2021/03/13 07:42:16;;;;;;;2.42;1.48;;;26.00;99.90;;;;;;5077915;28;20442;-82
2021/03/13 07:44:44;;;;;;;5.10;1.55;;;25.90;99.90;;;;;;5065990;28;20857;-83
2021/03/13 07:47:12;;;;;;;6.72;1.70;;;25.80;99.90;;;;;;5067801;28;20410;-80
2021/03/13 07:49:41;;;;;;;5.60;1.70;;;25.70;99.90;;;;;;5069551;28;20410;-81
2021/03/13 07:52:13;;;;;;;3.13;1.50;;;25.60;99.90;;;;;;5080136;28;20476;-80
2021/03/13 07:54:46;;;;;;;6.32;1.55;;;25.50;99.90;;;;;;5079945;28;20522;-81
2021/03/13 07:57:16;;;;;;;6.75;1.38;;;25.40;99.90;;;;;;5070704;28;20537;-81
2021/03/13 07:59:51;;;;;;;5.70;1.60;;;25.30;99.90;;;;;;5064240;28;20437;-81
2021/03/13 08:02:30;;;;;;;5.30;1.27;;;25.20;99.90;;;;;;5066675;28;20908;-83
2021/03/13 08:05:13;;;;;;;4.57;1.50;;;25.20;99.90;;;;;;5068063;28;20385;-84
2021/03/13 08:07:59;;;;;;;4.60;1.58;;;25.10;99.90;;;;;;5071061;28;20388;-83
2021/03/13 08:10:51;;;;;;;5.43;1.80;;;25.00;99.90;;;;;;5071026;28;20480;-83
2021/03/13 08:13:27;;;;;;;4.70;1.70;;;24.90;99.90;;;;;;5072341;28;20498;-83
2021/03/13 08:16:14;;;;;;;8.38;1.92;;;24.90;99.90;;;;;;5063743;28;20403;-84
2021/03/13 08:18:53;;;;;;;4.60;1.60;;;24.90;99.90;;;;;;5087991;28;20388;-83
2021/03/13 08:21:20;;;;;;;3.30;1.47;;;24.80;99.90;;;;;;5085943;28;20396;-83
2021/03/13 08:23:48;;;;;;;4.93;1.50;;;24.80;99.90;;;;;;5077688;28;20423;-83
2021/03/13 08:26:17;;;;;;;3.00;1.42;;;24.70;99.90;;;;;;5080836;28;20396;-83
2021/03/13 08:28:47;;;;;;;6.23;1.53;;;24.70;99.90;;;;;;5055113;28;20512;-83
2021/03/13 08:31:28;;;;;;;4.75;1.58;;;24.70;99.90;;;;;;5071239;28;20394;-84
2021/03/13 08:34:08;;;;;;;4.97;1.60;;;24.60;99.90;;;;;;5069417;28;20399;-84
2021/03/13 08:36:46;;;;;;;5.10;1.50;;;24.60;99.90;;;;;;5073244;28;20408;-84
2021/03/13 08:39:24;;;;;;;5.80;1.60;;;24.50;99.90;;;;;;5069928;28;20400;-83
2021/03/13 08:41:53;;;;;;;5.80;1.60;;;24.50;99.90;;;;;;5062221;28;20378;-85
2021/03/13 08:44:20;;;;;;;8.32;1.80;;;24.50;99.90;;;;;;5072892;28;20412;-82
2021/03/13 08:46:59;;;;;;;5.00;1.65;;;24.50;99.90;;;;;;5089383;28;20412;-84
2021/03/13 08:49:27;;;;;;;4.28;1.40;;;24.50;99.90;;;;;;5063070;28;20451;-84
2021/03/13 08:52:09;;;;;;;7.40;1.45;;;24.40;99.90;;;;;;5073301;28;20430;-83
2021/03/13 08:54:50;;;;;;;6.43;1.47;;;24.40;99.90;;;;;;5074672;28;22484;-84
2021/03/13 08:57:26;;;;;;;5.28;1.50;;;24.40;99.90;;;;;;5071193;28;20370;-83
2021/03/13 08:59:55;;;;;;;3.70;1.40;;;24.30;99.90;;;;;;5070742;28;20904;-83
2021/03/13 09:02:25;;;;;;;3.63;1.70;;;24.20;99.90;;;;;;5072256;28;20447;-84
2021/03/13 09:04:55;;;;;;;5.55;1.70;;;24.20;99.90;;;;;;5072328;28;20433;-83
2021/03/13 09:07:23;;;;;;;4.15;1.27;;;24.20;99.90;;;;;;5075564;28;20813;-82
2021/03/13 09:09:52;;;;;;;4.07;1.50;;;24.10;99.90;;;;;;5070895;28;20689;-84
2021/03/13 09:12:21;;;;;;;4.88;1.85;;;24.10;99.90;;;;;;5070973;28;20398;-83
2021/03/13 09:14:54;;;;;;;3.92;1.25;;;24.00;99.90;;;;;;5070525;28;20387;-83
2021/03/13 09:17:26;;;;;;;3.80;1.30;;;24.00;99.90;;;;;;5070317;28;20857;-83
2021/03/13 09:19:54;;;;;;;6.60;1.40;;;24.00;99.90;;;;;;5070174;28;20904;-82
2021/03/13 09:22:23;;;;;;;8.18;1.50;;;24.00;99.90;;;;;;5070168;28;20865;-83
2021/03/13 09:24:59;;;;;;;5.10;1.63;;;24.10;99.90;;;;;;5069681;28;20389;-83
2021/03/13 09:27:31;;;;;;;7.70;1.70;;;24.10;99.90;;;;;;5075780;28;20411;-83
2021/03/13 09:30:00;;;;;;;5.83;1.63;;;24.10;99.90;;;;;;5070941;28;20390;-83
2021/03/13 09:32:28;;;;;;;4.38;1.50;;;24.10;99.90;;;;;;5069901;28;20880;-83
2021/03/13 09:34:56;;;;;;;5.15;1.40;;;24.00;99.90;;;;;;5071779;28;20389;-83
2021/03/13 09:37:27;;;;;;;4.28;1.33;;;24.10;99.90;;;;;;5069665;28;20481;-83
2021/03/13 09:40:07;;;;;;;4.93;2.00;;;24.00;99.90;;;;;;5070245;28;20443;-83
2021/03/13 09:42:36;;;;;;;4.03;1.40;;;24.00;99.90;;;;;;5076740;28;20825;-83
2021/03/13 09:45:09;;;;;;;3.45;1.40;;;23.90;99.90;;;;;;5076298;28;20475;-84
2021/03/13 09:47:40;;;;;;;4.33;1.50;;;23.90;99.90;;;;;;5074008;28;20961;-83
2021/03/13 09:50:16;;;;;;;5.55;1.40;;;23.90;99.90;;;;;;5069851;28;20394;-83
2021/03/13 09:52:48;;;;;;;6.68;1.50;;;23.90;99.90;;;;;;5070431;28;20389;-82
2021/03/13 09:55:26;;;;;;;3.63;1.15;;;23.90;99.90;;;;;;5069356;28;20480;-82
2021/03/13 09:58:01;;;;;;;6.90;1.37;;;24.00;99.90;;;;;;5076892;28;20391;-82
2021/03/13 10:00:48;;;;;;;5.28;1.40;;;24.00;99.90;;;;;;5079036;28;20401;-81
2021/03/13 10:03:17;;;;;;;5.82;1.20;;;24.10;99.90;;;;;;5048440;28;20542;-81
2021/03/13 10:05:49;;;;;;;3.85;1.38;;;24.10;99.90;;;;;;5081415;28;20402;-81
2021/03/13 10:08:18;;;;;;;4.90;1.30;;;24.10;99.90;;;;;;5065125;28;20382;-82
2021/03/13 10:10:51;;;;;;;5.65;1.40;;;24.10;99.90;;;;;;5064920;28;20409;-82
2021/03/13 10:13:20;;;;;;;3.43;1.27;;;24.10;99.90;;;;;;5066131;28;20406;-82
2021/03/13 10:15:47;;;;;;;4.93;1.60;;;24.10;99.90;;;;;;5069490;28;20386;-82
2021/03/13 10:18:17;;;;;;;5.93;1.50;;;24.00;99.90;;;;;;5070387;28;20451;-82
2021/03/13 10:20:49;;;;;;;5.68;1.52;;;24.00;99.90;;;;;;5068981;28;20807;-82
2021/03/13 10:23:18;;;;;;;5.20;1.10;;;23.90;99.90;;;;;;5067076;28;20800;-83
2021/03/13 10:25:54;;;;;;;4.90;1.35;;;23.90;99.90;;;;;;5067105;28;20417;-82
2021/03/13 10:28:35;;;;;;;5.55;1.23;;;23.90;99.90;;;;;;5065937;28;20386;-83
2021/03/13 10:31:19;;;;;;;4.47;1.70;;;24.00;99.90;;;;;;5069613;28;20403;-84
2021/03/13 10:33:47;;;;;;;6.05;1.58;;;24.00;99.90;;;;;;5083040;28;20400;-84
2021/03/13 10:36:16;;;;;;;5.95;1.48;;;23.90;99.90;;;;;;5069132;28;20425;-82
2021/03/13 10:38:52;;;;;;;7.55;1.55;;;24.00;99.90;;;;;;5061356;28;20416;-83
2021/03/13 10:41:23;;;;;;;5.35;1.30;;;24.00;99.90;;;;;;5070721;28;20861;-83
2021/03/13 10:43:52;;;;;;;4.53;1.30;;;24.00;99.90;;;;;;5063517;28;20808;-82
2021/03/13 10:46:27;;;;;;;6.97;1.30;;;23.90;99.90;;;;;;5065541;28;20417;-83
2021/03/13 10:49:01;;;;;;;6.40;1.55;;;23.90;99.90;;;;;;5064893;28;20451;-83
2021/03/13 10:51:36;;;;;;;3.67;1.42;;;23.90;99.90;;;;;;5068665;28;20961;-83
2021/03/13 10:54:05;;;;;;;6.78;1.73;;;23.90;99.90;;;;;;5065858;28;20436;-83
2021/03/13 10:56:39;;;;;;;6.72;1.58;;;24.00;99.90;;;;;;5064305;28;20435;-83
2021/03/13 10:59:07;;;;;;;4.57;1.70;;;23.90;99.90;;;;;;5065570;28;20520;-82
2021/03/13 11:01:34;;;;;;;4.55;1.13;;;23.90;99.90;;;;;;5065866;28;20442;-82
2021/03/13 11:04:01;;;;;;;4.25;1.52;;;23.90;99.90;;;;;;5065329;28;20394;-83
2021/03/13 11:06:31;;;;;;;5.38;1.90;;;23.90;99.90;;;;;;5063402;28;20419;-83
2021/03/13 11:09:00;;;;;;;5.03;1.30;;;23.90;99.90;;;;;;5065253;28;20414;-83
2021/03/13 11:11:28;;;;;;;5.18;1.50;;;23.90;99.90;;;;;;5065803;28;20415;-83
2021/03/13 11:13:55;;;;;;;4.43;1.40;;;24.00;99.90;;;;;;5065781;28;20390;-83
2021/03/13 11:16:23;;;;;;;3.35;1.10;;;24.10;99.90;;;;;;5066983;28;20485;-82
2021/03/13 11:18:53;;;;;;;6.40;1.38;;;24.10;99.90;;;;;;5065292;28;20394;-84
2021/03/13 11:21:21;;;;;;;5.78;1.50;;;24.10;99.90;;;;;;5067787;28;20402;-83
2021/03/13 11:23:49;;;;;;;4.87;1.37;;;24.20;99.90;;;;;;5073229;28;20424;-84
2021/03/13 11:26:17;;;;;;;5.43;1.48;;;24.20;99.90;;;;;;5065600;28;20374;-83
2021/03/13 11:28:44;;;;;;;4.32;1.50;;;24.20;99.90;;;;;;5065337;28;20381;-83
2021/03/13 11:31:12;;;;;;;5.07;1.42;;;24.20;99.90;;;;;;5067854;28;20491;-82
2021/03/13 11:33:39;;;;;;;2.73;1.20;;;24.20;99.90;;;;;;5069143;28;21019;-82
2021/03/13 11:36:07;;;;;;;4.38;1.45;;;24.20;99.90;;;;;;5064685;28;20402;-81
2021/03/13 11:38:36;;;;;;;5.65;1.67;;;24.10;99.90;;;;;;5064285;28;20398;-82
2021/03/13 11:41:04;;;;;;;3.13;1.27;;;24.20;99.90;;;;;;5074555;28;20403;-82
2021/03/13 11:43:39;;;;;;;4.97;1.77;;;24.20;99.90;;;;;;5070765;28;20755;-81
2021/03/13 11:46:06;;;;;;;6.88;1.60;;;24.20;99.90;;;;;;5076247;28;20396;-83
2021/03/13 11:48:33;;;;;;;4.68;1.40;;;24.20;99.90;;;;;;5085142;28;20402;-84
2021/03/13 11:51:01;;;;;;;5.90;1.60;;;24.10;99.90;;;;;;5075607;28;20512;-83
2021/03/13 11:53:28;;;;;;;3.78;1.40;;;24.10;99.90;;;;;;5081575;28;20775;-83
2021/03/13 11:55:55;;;;;;;4.15;1.42;;;24.10;99.90;;;;;;5076329;28;20402;-83
2021/03/13 11:58:22;;;;;;;5.40;1.40;;;24.10;99.90;;;;;;5085271;28;21468;-83
2021/03/13 12:00:50;;;;;;;5.70;1.67;;;24.10;99.90;;;;;;5070298;28;20911;-82
2021/03/13 12:03:18;;;;;;;3.17;1.30;;;24.10;99.90;;;;;;5080400;28;20866;-82
2021/03/13 12:05:45;;;;;;;4.00;1.33;;;24.10;99.90;;;;;;5074395;28;20398;-82
2021/03/13 12:08:12;;;;;;;5.07;1.38;;;24.10;99.90;;;;;;5073943;27;20817;-82
2021/03/13 12:10:40;;;;;;;4.55;1.23;;;24.10;99.90;;;;;;5076116;28;20401;-83
2021/03/13 12:13:07;;;;;;;4.07;1.40;;;24.10;99.90;;;;;;5077023;28;20400;-82
2021/03/13 12:15:34;;;;;;;3.27;1.30;;;24.00;99.90;;;;;;5075877;28;20380;-83
2021/03/13 12:18:01;;;;;;;5.87;1.50;;;24.00;99.90;;;;;;5083203;28;20396;-82
2021/03/13 12:20:28;;;;;;;3.83;1.33;;;24.00;99.90;;;;;;5083546;28;20418;-82
2021/03/13 12:22:55;;;;;;;5.07;1.45;;;24.00;99.90;;;;;;5079249;28;20396;-82
2021/03/13 12:25:22;;;;;;;4.05;1.30;;;23.90;99.90;;;;;;5085775;28;20895;-83
2021/03/13 12:27:49;;;;;;;9.83;1.73;;;24.00;99.90;;;;;;5076314;28;20402;-82
2021/03/13 12:30:16;;;;;;;3.60;1.10;;;24.00;99.90;;;;;;5065004;28;20416;-82
2021/03/13 12:32:45;;;;;;;3.40;1.40;;;24.00;99.90;;;;;;5065538;28;20418;-82
2021/03/13 12:35:12;;;;;;;3.20;1.30;;;24.00;99.90;;;;;;5074285;28;20826;-82
2021/03/13 12:37:42;;;;;;;4.90;1.52;;;24.00;99.90;;;;;;5069924;28;20421;-82
2021/03/13 12:40:09;;;;;;;3.38;1.27;;;24.00;99.90;;;;;;5075757;28;20444;-82
2021/03/13 12:42:37;;;;;;;3.83;1.33;;;24.10;99.90;;;;;;5074637;28;20820;-83
2021/03/13 12:45:06;;;;;;;5.47;1.45;;;24.10;99.90;;;;;;5087381;28;20437;-82
2021/03/13 12:47:33;;;;;;;3.20;1.27;;;24.10;99.90;;;;;;5084402;28;20907;-82
2021/03/13 12:50:02;;;;;;;3.70;1.10;;;24.10;99.90;;;;;;5083780;28;20403;-82
2021/03/13 12:52:29;;;;;;;3.97;1.10;;;24.10;99.90;;;;;;5074869;28;20392;-86
2021/03/13 12:54:56;;;;;;;3.35;1.00;;;24.10;99.90;;;;;;5078964;28;20483;-81
2021/03/13 12:57:23;;;;;;;3.28;1.20;;;24.10;99.90;;;;;;5076655;28;22031;-83
2021/03/13 12:59:51;;;;;;;3.63;1.20;;;24.10;99.90;;;;;;5069575;28;20509;-82
2021/03/13 13:02:18;;;;;;;3.20;1.02;;;24.10;99.90;;;;;;5069293;28;20398;-82
2021/03/13 13:04:46;;;;;;;5.72;1.25;;;24.10;99.90;;;;;;5070228;28;20406;-82
2021/03/13 13:07:13;;;;;;;3.75;1.20;;;24.20;99.90;;;;;;5070073;28;20756;-82